Time;durP1;ratioP1;P1;durP2;ratioP2;P2;SDS_P1;SDS_P2;PMS_P1;PMS_P2;Temp;Humidity;BMP_temperature;BMP_pressure;BME280_temperature;BME280_humidity;BME280_pressure;Samples;Min_cycle;Max_cycle;Signal;HPM_P1;HPM_P2
2022/11/30 00:00:10;;;;;;;105.10;42.00;;;;;;;-1.07;94.68;99453.39;419740;1294;98092;-39
2022/11/30 00:10:39;;;;;;;73.50;31.50;;;;;;;-1.07;94.66;99449.42;419710;1302;114090;-38
2022/11/30 00:20:46;;;;;;;76.90;33.90;;;;;;;-1.03;94.56;99444.52;419621;1286;107153;-39
2022/11/30 00:30:57;;;;;;;83.80;34.30;;;;;;;-1.02;94.56;99454.48;419559;1302;98186;-39
2022/11/30 00:41:05;;;;;;;50.70;23.20;;;;;;;-1.19;94.50;99463.75;419614;1295;111096;-40
2022/11/30 00:51:13;;;;;;;50.30;23.70;;;;;;;-1.29;94.55;99473.33;419477;1304;107010;-39
2022/11/30 01:01:20;;;;;;;57.50;27.60;;;;;;;-1.29;94.54;99473.95;419707;1302;101379;-39
2022/11/30 01:11:29;;;;;;;68.60;32.50;;;;;;;-1.31;94.51;99479.14;419449;1301;108515;-39
2022/11/30 01:21:35;;;;;;;;;;;;;;;-1.29;94.69;99476.89;419448;1302;99416;-38
2022/11/30 01:31:43;;;;;;;56.70;25.60;;;;;;;-1.24;94.83;99472.15;419531;1294;111049;-39
2022/11/30 01:41:50;;;;;;;74.30;31.90;;;;;;;-1.27;94.84;99479.31;419516;1293;108472;-39
2022/11/30 01:52:02;;;;;;;60.40;26.60;;;;;;;-1.39;94.93;99481.62;419575;1301;99226;-39
2022/11/30 02:02:10;;;;;;;54.40;25.20;;;;;;;-1.36;94.78;99480.01;419414;1303;108935;-39
2022/11/30 02:12:16;;;;;;;58.40;27.70;;;;;;;-1.36;94.96;99484.45;419507;1295;99365;-39
2022/11/30 02:22:24;;;;;;;60.10;31.50;;;;;;;-1.34;94.95;99475.95;420786;1285;110001;-39
2022/11/30 02:32:36;;;;;;;74.30;32.80;;;;;;;-1.31;94.89;99470.34;419823;1303;108508;-38
2022/11/30 02:52:49;;;;;;;71.00;31.30;;;;;;;-1.53;94.93;99473.97;419762;1295;111117;-39
2022/11/30 03:02:56;;;;;;;73.10;31.40;;;;;;;-1.57;94.80;99481.71;419811;1307;106415;-39
2022/11/30 03:13:03;;;;;;;64.30;30.80;;;;;;;-1.49;95.05;99484.68;419864;1301;98789;-38
2022/11/30 03:23:11;;;;;;;56.10;28.40;;;;;;;-1.40;95.01;99491.23;419780;1299;108300;-41
2022/11/30 03:33:18;;;;;;;80.50;32.90;;;;;;;-1.47;95.15;99504.27;419920;1307;98969;-39
2022/11/30 03:43:26;;;;;;;66.40;29.40;;;;;;;-1.58;95.11;99510.08;419795;1301;113913;-40
2022/11/30 03:53:34;;;;;;;56.60;26.40;;;;;;;-1.65;94.92;99513.73;419704;1305;108649;-39
2022/11/30 04:03:42;;;;;;;52.50;25.30;;;;;;;-1.62;94.94;99513.89;419773;1303;99348;-39
2022/11/30 04:13:49;;;;;;;59.70;27.40;;;;;;;-1.61;94.90;99513.41;419757;1299;107956;-38
2022/11/30 04:23:56;;;;;;;74.80;33.00;;;;;;;-1.53;94.99;99514.80;419676;1301;99268;-39
2022/11/30 04:34:04;;;;;;;76.50;32.40;;;;;;;-1.63;94.93;99524.14;419789;1297;111068;-39
2022/11/30 04:44:11;;;;;;;60.00;30.40;;;;;;;-1.72;95.10;99521.44;419724;1301;109331;-38
2022/11/30 04:54:18;;;;;;;52.90;26.90;;;;;;;-1.70;94.80;99530.30;419646;1294;99481;-38
2022/11/30 05:04:25;;;;;;;51.70;27.00;;;;;;;-1.63;94.90;99538.64;419787;1295;108266;-39
2022/11/30 05:14:33;;;;;;;76.20;33.30;;;;;;;-1.57;94.86;99551.96;419679;1295;98080;-39
2022/11/30 05:24:40;;;;;;;64.40;30.20;;;;;;;-1.60;95.12;99554.86;419717;1301;111558;-39
2022/11/30 05:34:47;;;;;;;50.60;27.10;;;;;;;-1.60;94.92;99553.64;419656;1301;108536;-39
2022/11/30 05:44:57;;;;;;;64.40;29.40;;;;;;;-1.59;94.98;99563.41;419700;1301;98956;-39
2022/11/30 05:55:03;;;;;;;59.80;29.50;;;;;;;-1.58;94.91;99565.02;419559;1295;108277;-38
2022/11/30 06:05:12;;;;;;;80.20;38.10;;;;;;;-1.53;95.10;99569.49;419610;1302;99233;-39
2022/11/30 06:15:17;;;;;;;79.90;37.20;;;;;;;-1.58;95.21;99572.67;419746;1301;111140;-39
2022/11/30 06:25:25;;;;;;;83.90;35.90;;;;;;;-1.53;95.01;99576.73;419788;1292;108460;-40
2022/11/30 06:35:32;;;;;;;62.20;30.80;;;;;;;-1.51;94.80;99576.73;419570;1294;98143;-40
2022/11/30 06:45:40;;;;;;;52.70;26.40;;;;;;;-1.52;94.87;99583.91;419673;1295;112947;-39
2022/11/30 06:55:46;;;;;;;94.10;42.00;;;;;;;-1.54;94.96;99594.94;419892;1295;107675;-39
2022/11/30 07:05:54;;;;;;;75.70;33.20;;;;;;;-1.57;95.14;99604.87;419749;1301;99242;-39
2022/11/30 07:16:02;;;;;;;48.40;27.60;;;;;;;-1.53;95.02;99605.26;419662;1286;110566;-39
2022/11/30 07:36:16;;;;;;;48.80;26.00;;;;;;;-1.53;94.68;99606.92;419677;1302;99226;-39
2022/11/30 07:46:23;;;;;;;74.40;33.30;;;;;;;-1.58;94.87;99603.27;419768;1294;107922;-39
2022/11/30 07:56:30;;;;;;;45.90;26.10;;;;;;;-1.60;94.93;99600.63;419804;1294;99255;-40
2022/11/30 08:06:38;;;;;;;46.00;24.60;;;;;;;-1.53;94.86;99602.33;419756;1294;111881;-39
2022/11/30 08:16:46;;;;;;;61.40;30.40;;;;;;;-1.45;95.02;99596.80;419675;1301;107580;-39
2022/11/30 08:26:54;;;;;;;73.40;34.70;;;;;;;-1.38;94.75;99598.46;419750;1304;99263;-39
2022/11/30 08:37:01;;;;;;;72.50;34.70;;;;;;;-1.42;94.94;99614.66;419701;1293;108129;-41
2022/11/30 08:47:08;;;;;;;42.90;23.60;;;;;;;-1.42;94.87;99618.13;419781;1294;99265;-38
2022/11/30 08:57:16;;;;;;;37.70;20.90;;;;;;;-1.48;94.64;99621.06;419583;1304;111653;-39
2022/11/30 09:07:24;;;;;;;41.40;21.90;;;;;;;-1.43;94.98;99625.98;419689;1297;107026;-43
2022/11/30 09:17:32;;;;;;;39.00;20.70;;;;;;;-1.29;94.85;99629.54;419738;1295;98610;-40
2022/11/30 09:27:40;;;;;;;86.60;39.00;;;;;;;-1.27;94.81;99638.63;419680;1295;108401;-39
2022/11/30 09:37:47;;;;;;;44.60;26.00;;;;;;;-1.34;94.75;99637.85;419729;1300;99236;-40
2022/11/30 09:48:12;;;;;;;47.80;24.10;;;;;;;-1.34;94.58;99626.77;419591;1300;112278;-40
2022/11/30 09:58:21;;;;;;;44.20;22.70;;;;;;;-1.32;94.75;99634.02;419755;1296;107536;-39
2022/11/30 10:08:39;;;;;;;41.40;24.20;;;;;;;-1.36;94.68;99641.13;419644;1295;99374;-40
2022/11/30 10:18:45;;;;;;;38.90;22.60;;;;;;;-1.33;94.72;99646.95;419575;1305;107915;-39
2022/11/30 10:28:52;;;;;;;53.40;25.30;;;;;;;-1.33;94.76;99643.70;419700;1294;98500;-39
2022/11/30 10:39:02;;;;;;;55.30;28.40;;;;;;;-1.33;94.82;99635.86;419803;1303;111687;-39
2022/11/30 10:49:17;;;;;;;43.60;22.60;;;;;;;-1.32;94.51;99625.77;419736;1302;108710;-40
2022/11/30 10:59:25;;;;;;;44.80;21.70;;;;;;;-1.20;94.72;99627.88;419808;1302;99127;-39
2022/11/30 11:09:34;;;;;;;56.60;27.40;;;;;;;-1.17;94.85;99630.58;419913;1297;108836;-40
2022/11/30 11:19:43;;;;;;;49.40;26.70;;;;;;;-1.29;94.68;99623.23;419464;1301;413459;-39
2022/11/30 11:29:58;;;;;;;51.90;25.10;;;;;;;-1.28;94.37;99612.92;419890;1302;111523;-39
2022/11/30 11:50:28;;;;;;;62.30;30.30;;;;;;;-1.16;94.62;99619.61;419867;1295;99255;-38
2022/11/30 12:00:56;;;;;;;36.80;20.60;;;;;;;-1.19;94.60;99616.70;419665;1288;107675;-39
2022/11/30 12:11:31;;;;;;;54.80;27.00;;;;;;;-1.15;94.63;99620.52;419756;1294;99310;-40
2022/11/30 12:21:39;;;;;;;50.80;23.60;;;;;;;-1.12;94.43;99624.22;419647;1303;113004;-40
2022/11/30 12:31:53;;;;;;;68.60;32.80;;;;;;;-1.08;94.65;99636.02;419794;1301;107061;-39
2022/11/30 12:41:58;;;;;;;38.10;20.10;;;;;;;-1.10;94.63;99641.41;419650;1302;99270;-40
2022/11/30 12:52:08;;;;;;;39.30;21.30;;;;;;;-1.21;94.03;99646.44;419619;1294;107178;-40
2022/11/30 13:02:35;;;;;;;51.00;25.30;;;;;;;-1.23;94.14;99641.23;419562;1304;99227;-40
2022/11/30 13:12:41;;;;;;;57.20;27.10;;;;;;;-1.33;94.28;99637.48;419686;1295;111004;-40
2022/11/30 13:22:56;;;;;;;90.40;35.70;;;;;;;-1.35;94.39;99635.39;419728;1302;107734;-39
2022/11/30 13:33:33;;;;;;;38.60;22.70;;;;;;;-1.32;94.26;99625.58;419576;1295;99281;-40
2022/11/30 13:53:47;;;;;;;44.50;24.80;;;;;;;-1.36;94.13;99629.91;419472;1294;108430;-39
2022/11/30 14:04:33;;;;;;;55.10;30.10;;;;;;;-1.36;94.25;99635.25;419630;1295;99168;-40
2022/11/30 14:14:45;;;;;;;28.70;17.70;;;;;;;-1.49;93.99;99638.48;419579;1304;106629;-40
2022/11/30 14:24:55;;;;;;;30.10;18.60;;;;;;;-1.54;93.96;99641.10;420065;1294;99255;-40
2022/11/30 14:45:14;;;;;;;59.10;28.80;;;;;;;-1.49;94.17;99636.21;419637;1304;108523;-39
2022/11/30 14:55:20;;;;;;;31.30;19.20;;;;;;;-1.56;93.97;99646.31;419681;1304;98909;-38
2022/11/30 15:05:31;;;;;;;28.80;19.50;;;;;;;-1.60;93.97;99649.08;419556;1303;108003;-39
2022/11/30 15:15:38;;;;;;;33.00;20.80;;;;;;;-1.56;94.00;99647.70;419574;1294;98066;-40
2022/11/30 15:25:47;;;;;;;57.30;28.70;;;;;;;-1.53;93.92;99653.31;419645;1294;112236;-39
2022/11/30 15:35:56;;;;;;;37.50;21.70;;;;;;;-1.58;93.95;99655.64;419670;1288;109407;-40
2022/11/30 15:46:28;;;;;;;30.50;20.40;;;;;;;-1.53;93.95;99651.02;419886;1295;99255;-41
2022/11/30 15:56:36;;;;;;;35.50;21.00;;;;;;;-1.49;93.89;99652.60;419747;1295;108994;-39
2022/11/30 16:06:46;;;;;;;39.50;22.60;;;;;;;-1.46;93.90;99656.38;419711;1294;99223;-39
2022/11/30 16:16:54;;;;;;;53.10;27.60;;;;;;;-1.46;93.79;99667.08;419841;1304;112120;-40
2022/11/30 16:27:02;;;;;;;41.00;23.00;;;;;;;-1.53;94.06;99678.05;419656;1302;108085;-39
2022/11/30 16:37:08;;;;;;;34.90;19.40;;;;;;;-1.53;93.62;99676.30;419590;1302;99227;-37
2022/11/30 16:47:15;;;;;;;36.70;19.10;;;;;;;-1.47;93.56;99683.45;419634;1300;106771;-38
2022/11/30 16:57:22;;;;;;;30.40;18.80;;;;;;;-1.42;93.46;99687.86;419575;1301;98706;-38
2022/11/30 17:07:30;;;;;;;73.10;29.70;;;;;;;-1.37;93.60;99692.45;419579;1302;110922;-39
2022/11/30 17:17:37;;;;;;;58.40;26.60;;;;;;;-1.36;93.46;99699.98;419424;1294;107857;-40
2022/11/30 17:27:45;;;;;;;45.00;24.00;;;;;;;-1.31;93.40;99705.22;419353;1294;98039;-40
2022/11/30 17:37:53;;;;;;;37.60;21.00;;;;;;;-1.22;93.32;99700.68;419406;1295;106688;-40
2022/11/30 17:48:00;;;;;;;57.60;28.90;;;;;;;-1.14;93.54;99700.60;419517;1303;98049;-38
2022/11/30 17:58:07;;;;;;;62.60;30.40;;;;;;;-1.16;93.40;99703.84;419494;1302;112242;-39
2022/11/30 18:08:12;;;;;;;49.20;25.60;;;;;;;-1.13;93.48;99708.29;419417;1298;108405;-39
2022/11/30 18:18:19;;;;;;;46.50;21.30;;;;;;;-1.01;93.28;99706.30;419493;1294;99265;-40
2022/11/30 18:28:27;;;;;;;50.50;27.30;;;;;;;-0.86;93.42;99712.94;419484;1304;111939;-39
2022/11/30 18:38:35;;;;;;;71.70;34.10;;;;;;;-0.81;93.55;99707.25;419536;1302;108746;-40
2022/11/30 18:48:42;;;;;;;77.70;39.00;;;;;;;-0.80;93.44;99711.29;419537;1301;99249;-39
2022/11/30 18:58:54;;;;;;;57.30;28.40;;;;;;;-0.81;93.41;99719.02;419490;1302;112056;-40
2022/11/30 19:19:07;;;;;;;50.90;27.50;;;;;;;-0.57;93.32;99717.17;419719;1295;98300;-39
2022/11/30 19:29:15;;;;;;;68.80;33.50;;;;;;;-0.54;93.23;99722.98;420148;1302;106957;-38
2022/11/30 19:39:24;;;;;;;65.80;33.70;;;;;;;-0.64;93.09;99721.20;420809;1304;99227;-39
2022/11/30 19:59:38;;;;;;;42.70;23.90;;;;;;;-0.59;92.99;99733.46;419755;1304;106888;-40
2022/11/30 20:09:44;;;;;;;87.60;40.90;;;;;;;-0.51;92.99;99736.52;419843;1294;99256;-39
2022/11/30 20:30:11;;;;;;;96.90;49.00;;;;;;;-0.65;93.09;99732.58;419745;1305;99294;-40
2022/11/30 20:40:19;;;;;;;69.40;36.70;;;;;;;-0.68;92.94;99727.46;419638;1295;111284;-40
2022/11/30 21:10:38;;;;;;;89.70;41.70;;;;;;;-0.54;93.17;99729.48;419613;1295;107861;-40
2022/11/30 21:20:45;;;;;;;88.40;41.40;;;;;;;-0.49;93.22;99729.79;419654;1304;98869;-40
2022/11/30 21:30:52;;;;;;;93.60;43.50;;;;;;;-0.60;93.04;99724.98;419686;1303;112505;-39
2022/11/30 21:41:00;;;;;;;69.40;37.20;;;;;;;-0.63;92.86;99717.00;419634;1304;107900;-40
2022/11/30 21:51:05;;;;;;;64.80;36.80;;;;;;;-0.52;92.85;99715.30;419548;1304;99250;-38
2022/11/30 22:01:13;;;;;;;82.60;38.40;;;;;;;-0.35;93.13;99705.17;419561;1303;112201;-39
2022/11/30 22:11:21;;;;;;;98.40;43.90;;;;;;;-0.18;93.28;99700.61;419643;1295;107459;-39
2022/11/30 22:21:31;;;;;;;108.30;47.40;;;;;;;-0.22;92.97;99706.10;419658;1295;99226;-39
2022/11/30 22:31:38;;;;;;;;;;;;;;;-0.32;92.88;99711.00;419731;1304;109101;-39
2022/11/30 22:41:47;;;;;;;88.70;39.20;;;;;;;-0.39;93.04;99711.73;419674;1300;98442;-39
2022/11/30 22:52:01;;;;;;;50.80;27.60;;;;;;;-0.32;93.09;99705.55;419740;1302;111920;-40
2022/11/30 23:02:08;;;;;;;45.00;23.60;;;;;;;-0.15;92.86;99699.80;419742;1295;108292;-39
2022/11/30 23:12:15;;;;;;;50.20;25.20;;;;;;;-0.01;92.79;99692.77;419477;1299;426920;-40
2022/11/30 23:22:43;;;;;;;59.60;31.10;;;;;;;0.04;93.06;99688.23;419773;1302;108419;-39
2022/11/30 23:32:53;;;;;;;48.70;24.70;;;;;;;0.02;93.10;99683.69;419869;1302;99265;-39
2022/11/30 23:43:00;;;;;;;38.50;21.40;;;;;;;0.05;92.76;99685.17;419803;1295;112477;-41
2022/11/30 23:53:06;;;;;;;29.10;16.70;;;;;;;0.17;92.83;99687.39;419820;1294;107901;-39
